This is the latest recevied weather packets stored in our database for station/object KD4WLE. If no packets are shown the sender has not sent any weather packets the latest 1 day(s).
| Time | Temp. | Humidity | Pressure | Rain* | Wind** | Luminosity | Snow |
|---|---|---|---|---|---|---|---|
| 1778073846 | 26.67° C | 82% | 1017.7 hPa | 0 mm | - | 300 W/m² | - |
| 1778072633 | 25.56° C | 85% | 1017.8 hPa | 0 mm | - | 209 W/m² | - |
| 1778069608 | 22.22° C | 97% | 1017.2 hPa | 0 mm | - | 155 W/m² | - |
| 1778068096 | 19.44° C | 99% | 1017.5 hPa | 0 mm | - | 72 W/m² | - |
| 1778067794 | 19.44° C | 99% | 1017.4 hPa | 0 mm | - | 64 W/m² | - |
| 1778063858 | 17.78° C | 99% | 1016.8 hPa | 0 mm | - | 2 W/m² | - |
| 1778062951 | 17.78° C | 99% | 1016.7 hPa | 0 mm | - | 0 W/m² | - |
| 1778062042 | 17.78° C | 99% | 1016.6 hPa | 0 mm | - | 0 W/m² | - |
| 1778061740 | 17.78° C | 99% | 1016.5 hPa | 0 mm | - | 0 W/m² | - |
| 1778061135 | 17.78° C | 99% | 1016.6 hPa | 0 mm | - | 0 W/m² | - |
| 1778060832 | 17.78° C | 99% | 1016.6 hPa | 0 mm | - | 0 W/m² | - |
| 1778060530 | 17.78° C | 99% | 1016.3 hPa | 0 mm | - | 0 W/m² | - |
| 1778059925 | 18.33° C | 99% | 1015.8 hPa | 0 mm | - | 0 W/m² | - |
| 1778058715 | 18.33° C | 99% | 1016.2 hPa | 0 mm | - | 0 W/m² | - |
| 1778058413 | 18.33° C | 99% | 1016.3 hPa | 0 mm | - | 0 W/m² | - |
| 1778058109 | 18.33° C | 99% | 1016.2 hPa | 0 mm | - | 0 W/m² | - |
| 1778057806 | 18.33° C | 98% | 1016.1 hPa | 0 mm | - | 0 W/m² | - |
| 1778057502 | 18.33° C | 98% | 1016.1 hPa | 0 mm | - | 0 W/m² | - |
| 1778056896 | 18.33° C | 98% | 1016.3 hPa | 0 mm | - | 0 W/m² | - |
| 1778055381 | 18.89° C | 98% | 1016.1 hPa | 0 mm | - | 0 W/m² | - |
| 1778054776 | 18.89° C | 97% | 1016.2 hPa | 0 mm | - | 0 W/m² | - |
| 1778054472 | 18.89° C | 97% | 1016.1 hPa | 0 mm | - | 0 W/m² | - |
| 1778054170 | 18.89° C | 97% | 1016.5 hPa | 0 mm | - | 0 W/m² | - |
| 1778053866 | 18.89° C | 97% | 1016.3 hPa | 0 mm | - | 0 W/m² | - |
| 1778053564 | 18.89° C | 97% | 1016.2 hPa | 0 mm | - | 0 W/m² | - |
* Rain latest hour (hover to see other rain measurements)
** Current wind speed in m/s (hover to see current wind gust speed)